Etusivu
METAR-TAF:

METAR-TAF

Lentoasemat :

Moline, Illinois, Yhdysvallat

Leveyspiiri: 41-27-05N, Pituuspiiri: 090-30-53W, korkeus merenpinnasta: 179 m

Tämänhetkinen sää

Tämä raportti tehtiin 38 minuuttia sitten, kello 10.52 UTC
tyyntä
Lämpötila 3°C
Kosteus 93%
Ilmanpaine 1018 hPa
Näkyvyys: 16.1 km
selkeää

METAR: KMLI 171052Z 00000KT 10SM CLR 03/02 A3005 RMK AO2 SLP179 T00330017

Aika: 06:30 (11:30 UTC)

Sääennuste

Tämä raportti tehtiin 6 tuntia ja 8 minuuttia sitten, kello 05.22 UTC
Ennuste voimassa 17. päivästä klo 06 UTC - 18. päivään klo 06 UTC
Tuuli 4 kn lännestä
Näkyvyys: 10 km
Hajanaisia pilviä 3500 ft:n korkeudessa
From 17. päivästä klo 1900 UTC
Tuuli 4 kn etelästä/lounaasta
Näkyvyys: 10 km
Hajanaisia pilviä 4000 ft:n korkeudessa

TAF: KMLI 170522Z 1706/1806 28004KT P6SM SCT035 FM171900 20004KT P6SM SCT040

Säähavainnot ja -ennusteet yli 4000 lentoasemalta (METAR- ja TAF-raportit).

Käytössä olevat sääasemat on merkitty karttaan keltaisilla ja punaisilla pisteillä.

Aseta hiiri pisteen päälle nähdäksesi sääaseman nimen.

Klikkaa sitten nähdäksesi säähavainnot ja -ennusteet.

Kartan vaihtaminen: klikkaa mustalla rastilla varustettuja vihreitä pisteitä, niin voit zoomata sisään; viivalla varustettua vihreää pistettä, niin voit zoomata ulos tai vihreitä nuolia, niin pääset viereisille kartoille.


METAR-TAF: